createdAt,value
2023-06-09T00:01:11.501Z,8.48
2023-06-09T00:03:40.637Z,7.72
2023-06-09T00:06:10.555Z,8.52
2023-06-09T00:08:38.906Z,7.90
2023-06-09T00:11:10.798Z,8.40
2023-06-09T00:13:39.078Z,9.20
2023-06-09T00:16:08.110Z,9.43
2023-06-09T00:18:36.472Z,8.52
2023-06-09T00:21:05.769Z,9.70
2023-06-09T00:23:34.260Z,10.35
2023-06-09T00:26:03.836Z,10.10
2023-06-09T00:28:33.534Z,8.90
2023-06-09T00:31:02.506Z,9.35
2023-06-09T00:33:30.898Z,9.65
2023-06-09T00:35:59.605Z,9.90
2023-06-09T00:38:27.991Z,9.82
2023-06-09T00:40:56.866Z,9.80
2023-06-09T00:43:25.233Z,8.88
2023-06-09T00:45:56.078Z,9.93
2023-06-09T00:48:24.655Z,9.32
2023-06-09T00:50:53.283Z,10.45
2023-06-09T00:53:22.402Z,9.35
2023-06-09T00:55:51.578Z,8.75
2023-06-09T00:58:20.533Z,8.95
2023-06-09T01:00:48.934Z,8.68
2023-06-09T01:03:19.846Z,8.18
2023-06-09T01:05:51.078Z,8.82
2023-06-09T01:08:24.283Z,8.38
2023-06-09T01:11:03.354Z,7.82
2023-06-09T01:13:41.200Z,8.07
2023-06-09T01:16:15.357Z,6.95
2023-06-09T01:18:47.021Z,9.30
2023-06-09T01:21:26.656Z,7.60
2023-06-09T01:24:05.790Z,9.05
2023-06-09T01:26:39.863Z,10.45
2023-06-09T01:29:08.683Z,10.52
2023-06-09T01:31:39.377Z,9.98
2023-06-09T01:34:07.836Z,10.25
2023-06-09T01:36:37.477Z,10.43
2023-06-09T01:39:07.222Z,10.10
2023-06-09T01:41:36.931Z,10.05
2023-06-09T01:44:05.930Z,11.07
2023-06-09T01:46:34.679Z,10.73
2023-06-09T01:49:11.411Z,10.75
2023-06-09T01:51:49.004Z,11.18
2023-06-09T01:54:23.206Z,10.93
2023-06-09T01:56:59.718Z,11.73
2023-06-09T01:59:42.995Z,11.95
2023-06-09T02:02:14.094Z,11.52
2023-06-09T02:04:44.890Z,12.55
2023-06-09T02:07:17.844Z,11.52
2023-06-09T02:09:46.779Z,11.30
2023-06-09T02:12:17.043Z,11.95
2023-06-09T02:14:45.336Z,11.82
2023-06-09T02:17:13.845Z,11.77
2023-06-09T02:19:42.759Z,11.95
2023-06-09T02:22:11.129Z,12.43
2023-06-09T02:24:39.418Z,11.43
2023-06-09T02:27:09.243Z,11.25
2023-06-09T02:29:38.934Z,11.02
2023-06-09T02:32:08.375Z,9.90
2023-06-09T02:34:38.828Z,11.13
2023-06-09T02:37:11.105Z,11.25
2023-06-09T02:39:39.381Z,11.77
2023-06-09T02:42:08.842Z,11.43
2023-06-09T02:44:39.706Z,11.48
2023-06-09T02:47:08.349Z,11.50
2023-06-09T02:49:38.093Z,11.23
2023-06-09T02:52:06.648Z,11.50
2023-06-09T02:54:38.727Z,11.02
2023-06-09T02:57:08.318Z,10.25
2023-06-09T02:59:40.847Z,12.57
2023-06-09T03:02:09.415Z,13.23
2023-06-09T03:04:39.449Z,13.38
2023-06-09T03:07:10.492Z,15.45
2023-06-09T03:09:39.480Z,12.52
2023-06-09T03:12:09.701Z,12.02
2023-06-09T03:14:41.856Z,11.65
2023-06-09T03:17:11.397Z,13.13
2023-06-09T03:19:40.918Z,12.90
2023-06-09T03:22:09.428Z,15.32
2023-06-09T03:24:40.570Z,13.38
2023-06-09T03:27:08.880Z,12.68
2023-06-09T03:29:37.528Z,11.70
2023-06-09T03:32:08.197Z,12.73
2023-06-09T03:34:37.165Z,13.10
2023-06-09T03:37:10.291Z,12.25
2023-06-09T03:39:39.492Z,13.52
2023-06-09T03:42:08.043Z,13.60
2023-06-09T03:44:36.486Z,12.35
2023-06-09T03:47:07.841Z,12.18
2023-06-09T03:49:36.388Z,14.40
2023-06-09T03:52:07.451Z,12.68
2023-06-09T03:54:37.579Z,12.35
2023-06-09T03:57:06.764Z,15.10
2023-06-09T03:59:35.509Z,12.73
2023-06-09T04:02:04.417Z,12.40
2023-06-09T04:04:34.352Z,12.82
2023-06-09T04:07:03.106Z,13.43
2023-06-09T04:09:33.690Z,14.00
2023-06-09T04:12:02.860Z,12.25
2023-06-09T04:14:31.732Z,13.70
2023-06-09T04:17:01.390Z,13.23
2023-06-09T04:19:29.888Z,17.48
2023-06-09T04:22:06.206Z,14.23
2023-06-09T04:24:34.474Z,12.48
2023-06-09T04:27:04.726Z,11.52
2023-06-09T04:29:34.118Z,11.52
2023-06-09T04:32:04.092Z,11.50
2023-06-09T04:34:40.882Z,11.57
2023-06-09T04:37:15.187Z,12.23
2023-06-09T04:39:48.887Z,10.52
2023-06-09T04:42:23.547Z,11.43
2023-06-09T04:44:52.587Z,11.18
2023-06-09T04:47:25.881Z,10.52
2023-06-09T04:49:54.801Z,11.65
2023-06-09T04:52:25.525Z,12.07
2023-06-09T04:54:53.754Z,11.65
2023-06-09T04:57:30.157Z,11.02
2023-06-09T05:00:15.181Z,11.57
2023-06-09T05:02:44.127Z,11.60
2023-06-09T05:05:13.605Z,12.30
2023-06-09T05:07:44.170Z,11.57
2023-06-09T05:10:12.993Z,10.63
2023-06-09T05:12:42.435Z,10.60
2023-06-09T05:15:12.870Z,10.82
2023-06-09T05:17:44.300Z,10.98
2023-06-09T05:20:13.561Z,10.95
2023-06-09T05:22:44.262Z,9.70
2023-06-09T05:25:17.782Z,10.77
2023-06-09T05:27:48.041Z,11.07
2023-06-09T05:30:18.662Z,9.60
2023-06-09T05:32:47.199Z,10.05
2023-06-09T05:35:15.552Z,9.32
2023-06-09T05:37:53.084Z,9.07
2023-06-09T05:40:25.575Z,7.57
2023-06-09T05:42:54.209Z,7.15
2023-06-09T05:45:22.460Z,8.55
2023-06-09T05:47:51.730Z,7.47
2023-06-09T05:50:20.961Z,7.38
2023-06-09T05:52:50.967Z,7.93
2023-06-09T05:55:19.468Z,7.82
2023-06-09T05:57:48.171Z,6.53
2023-06-09T06:00:16.920Z,6.18
2023-06-09T06:02:46.455Z,5.88
2023-06-09T06:05:15.212Z,6.03
2023-06-09T06:07:43.574Z,6.97
2023-06-09T06:10:14.090Z,7.25
2023-06-09T06:12:45.356Z,6.60
2023-06-09T06:15:14.293Z,6.55
2023-06-09T06:17:42.775Z,5.93
2023-06-09T06:20:13.110Z,6.05
2023-06-09T06:22:42.722Z,5.30
2023-06-09T06:25:14.513Z,5.22
2023-06-09T06:27:47.861Z,5.60
2023-06-09T06:30:17.741Z,4.80
2023-06-09T06:32:53.039Z,5.38
2023-06-09T06:35:26.303Z,5.07
2023-06-09T06:37:55.226Z,4.25
2023-06-09T06:40:24.218Z,3.63
2023-06-09T06:42:55.023Z,4.07
2023-06-09T06:45:31.467Z,3.70
2023-06-09T06:48:00.082Z,3.60
2023-06-09T06:50:28.945Z,4.13
2023-06-09T06:52:57.197Z,4.00
2023-06-09T06:55:27.074Z,3.90
2023-06-09T06:57:58.352Z,3.78
2023-06-09T07:00:29.154Z,3.70
2023-06-09T07:02:58.332Z,3.30
2023-06-09T07:05:26.763Z,3.47
2023-06-09T07:07:55.737Z,4.30
2023-06-09T07:10:23.918Z,4.45
2023-06-09T07:12:52.938Z,4.07
2023-06-09T07:15:22.646Z,3.47
2023-06-09T07:17:51.269Z,3.00
2023-06-09T07:20:20.018Z,3.80
2023-06-09T07:22:52.560Z,3.80
2023-06-09T07:25:21.771Z,3.20
2023-06-09T07:27:50.082Z,3.13
2023-06-09T07:30:18.453Z,3.40
2023-06-09T07:32:49.002Z,3.08
2023-06-09T07:35:17.279Z,2.92
2023-06-09T07:37:46.973Z,3.00
2023-06-09T07:40:19.885Z,3.10
2023-06-09T07:42:51.008Z,3.10
2023-06-09T07:45:19.777Z,3.08
2023-06-09T07:47:49.507Z,3.20
2023-06-09T07:50:19.097Z,2.78
2023-06-09T07:52:47.806Z,2.47
2023-06-09T07:55:16.451Z,2.75
2023-06-09T07:57:46.708Z,3.15
2023-06-09T08:00:18.018Z,3.22
2023-06-09T08:02:46.704Z,3.13
2023-06-09T08:05:26.795Z,2.60
2023-06-09T08:07:55.587Z,3.42
2023-06-09T08:10:23.842Z,2.53
2023-06-09T08:12:52.680Z,4.07
2023-06-09T08:15:21.820Z,2.33
2023-06-09T08:17:51.170Z,3.05
2023-06-09T08:20:19.985Z,3.10
2023-06-09T08:22:50.611Z,2.95
2023-06-09T08:25:18.816Z,2.58
2023-06-09T08:27:48.079Z,3.15
2023-06-09T08:30:16.459Z,2.97
2023-06-09T08:32:48.268Z,3.38
2023-06-09T08:35:16.729Z,3.13
2023-06-09T08:37:45.414Z,3.20
2023-06-09T08:40:15.712Z,3.63
2023-06-09T08:42:48.699Z,2.70
2023-06-09T08:45:20.725Z,3.05
2023-06-09T08:47:50.654Z,2.85
2023-06-09T08:50:19.962Z,2.75
2023-06-09T08:52:50.137Z,3.58
2023-06-09T08:55:19.968Z,2.88
2023-06-09T08:57:50.989Z,3.15
2023-06-09T09:00:19.778Z,3.08
2023-06-09T09:02:48.521Z,3.17
2023-06-09T09:05:16.866Z,3.05
2023-06-09T09:07:46.667Z,3.88
2023-06-09T09:10:15.403Z,3.10
2023-06-09T09:12:50.121Z,4.03
2023-06-09T09:15:18.362Z,2.83
2023-06-09T09:17:51.321Z,3.33
2023-06-09T09:20:20.278Z,3.33
2023-06-09T09:22:50.098Z,3.83
2023-06-09T09:25:26.737Z,3.38
2023-06-09T09:28:09.156Z,4.18
2023-06-09T09:30:45.814Z,3.38
2023-06-09T09:33:17.060Z,5.25
2023-06-09T09:35:50.074Z,3.92
2023-06-09T09:38:20.971Z,3.45
2023-06-09T09:40:51.899Z,2.95
2023-06-09T09:43:22.964Z,3.40
2023-06-09T09:45:53.400Z,3.17
2023-06-09T09:48:26.345Z,3.83
2023-06-09T09:50:55.997Z,2.65
2023-06-09T09:53:26.554Z,3.03
2023-06-09T09:55:56.871Z,2.95
2023-06-09T09:58:33.045Z,2.70
2023-06-09T10:01:06.230Z,2.45
2023-06-09T10:03:37.224Z,3.28
2023-06-09T10:06:10.223Z,5.38
2023-06-09T10:08:43.387Z,3.08
2023-06-09T10:11:13.232Z,3.38
2023-06-09T10:13:43.811Z,3.10
2023-06-09T10:16:12.495Z,3.20
2023-06-09T10:18:43.248Z,2.65
2023-06-09T10:21:12.813Z,4.07
2023-06-09T10:23:43.461Z,2.85
2023-06-09T10:26:12.278Z,2.90
2023-06-09T10:28:42.259Z,2.80
2023-06-09T10:31:12.645Z,3.05
2023-06-09T10:33:45.406Z,3.90
2023-06-09T10:36:14.155Z,2.97
2023-06-09T10:38:44.652Z,3.10
2023-06-09T10:41:16.448Z,3.05
2023-06-09T10:44:04.246Z,3.63
2023-06-09T10:46:44.075Z,3.20
2023-06-09T10:49:37.725Z,2.50
2023-06-09T10:52:07.095Z,2.60
2023-06-09T10:54:37.780Z,3.05
2023-06-09T10:57:28.298Z,3.45
2023-06-09T10:59:58.816Z,3.10
2023-06-09T11:02:27.441Z,2.85
2023-06-09T11:04:56.335Z,2.88
2023-06-09T11:07:27.127Z,3.15
2023-06-09T11:10:26.284Z,2.55
2023-06-09T11:12:54.681Z,2.97
2023-06-09T11:15:26.813Z,2.25
2023-06-09T11:17:55.830Z,2.47
2023-06-09T11:20:26.479Z,2.50
2023-06-09T11:23:02.341Z,2.13
2023-06-09T11:25:40.994Z,2.90
2023-06-09T11:28:20.495Z,2.80
2023-06-09T11:31:09.162Z,2.67
2023-06-09T11:33:47.410Z,2.63
2023-06-09T11:36:28.501Z,2.38
2023-06-09T11:39:03.710Z,2.83
2023-06-09T11:41:32.406Z,2.35
2023-06-09T11:44:01.937Z,2.58
2023-06-09T11:46:36.116Z,2.38
2023-06-09T11:49:10.744Z,2.80
2023-06-09T11:51:55.484Z,2.77
2023-06-09T11:54:24.909Z,2.03
2023-06-09T11:56:54.876Z,2.30
2023-06-09T11:59:37.424Z,2.22
2023-06-09T12:02:19.146Z,2.42
2023-06-09T12:04:50.152Z,2.40
2023-06-09T12:07:20.342Z,2.38
2023-06-09T12:09:59.025Z,2.58
2023-06-09T12:12:27.358Z,2.75
2023-06-09T12:14:55.998Z,2.05
2023-06-09T12:17:26.304Z,2.40
2023-06-09T12:19:57.770Z,2.72
2023-06-09T12:22:26.026Z,2.65
2023-06-09T12:24:55.075Z,2.80
2023-06-09T12:27:23.985Z,2.60
2023-06-09T12:29:53.882Z,2.45
2023-06-09T12:32:26.435Z,2.10
2023-06-09T12:35:02.510Z,2.97
2023-06-09T12:37:38.106Z,2.55
2023-06-09T12:40:12.323Z,2.40
2023-06-09T12:42:50.492Z,2.33
2023-06-09T12:45:19.506Z,2.28
2023-06-09T12:47:52.489Z,2.40
2023-06-09T12:50:21.792Z,2.25
2023-06-09T12:52:50.112Z,2.40
2023-06-09T12:55:18.953Z,2.65
2023-06-09T12:57:47.179Z,2.40
2023-06-09T13:00:22.604Z,3.13
2023-06-09T13:02:53.712Z,2.55
2023-06-09T13:05:24.648Z,2.95
2023-06-09T13:07:53.011Z,3.33
2023-06-09T13:10:22.000Z,2.85
2023-06-09T13:12:52.133Z,2.72
2023-06-09T13:15:22.499Z,2.40
2023-06-09T13:17:53.173Z,2.63
2023-06-09T13:20:22.734Z,2.58
2023-06-09T13:22:52.364Z,2.88
2023-06-09T13:25:21.600Z,2.80
2023-06-09T13:27:49.872Z,2.47
2023-06-09T13:30:18.846Z,3.05
2023-06-09T13:32:47.172Z,2.38
2023-06-09T13:35:18.345Z,2.90
2023-06-09T13:37:46.602Z,2.97
2023-06-09T13:40:15.628Z,2.70
2023-06-09T13:42:44.667Z,2.88
2023-06-09T13:45:14.521Z,2.97
2023-06-09T13:47:43.132Z,2.47
2023-06-09T13:50:12.936Z,3.08
2023-06-09T13:52:44.198Z,2.83
2023-06-09T13:55:12.909Z,2.50
2023-06-09T13:57:43.994Z,2.20
2023-06-09T14:00:16.216Z,2.58
2023-06-09T14:02:45.375Z,2.63
2023-06-09T14:05:14.954Z,3.35
2023-06-09T14:07:49.127Z,2.55
2023-06-09T14:10:18.176Z,2.70
2023-06-09T14:12:49.828Z,2.55
2023-06-09T14:15:28.785Z,2.83
2023-06-09T14:17:59.456Z,2.85
2023-06-09T14:20:28.817Z,3.13
2023-06-09T14:23:04.158Z,2.70
2023-06-09T14:25:32.717Z,2.72
2023-06-09T14:28:01.840Z,2.72
2023-06-09T14:30:30.634Z,2.65
2023-06-09T14:32:59.701Z,3.33
2023-06-09T14:35:29.371Z,3.72
2023-06-09T14:38:02.037Z,2.75
2023-06-09T14:40:31.958Z,2.92
2023-06-09T14:43:01.977Z,2.20
2023-06-09T14:45:30.431Z,2.67
2023-06-09T14:48:01.284Z,2.53
2023-06-09T14:50:33.240Z,2.83
2023-06-09T14:53:05.299Z,3.25
2023-06-09T14:55:37.488Z,2.72
2023-06-09T14:58:07.204Z,2.53
2023-06-09T15:00:35.927Z,2.83
2023-06-09T15:03:05.066Z,2.63
2023-06-09T15:05:33.345Z,2.58
2023-06-09T15:08:05.230Z,2.35
2023-06-09T15:10:35.006Z,2.78
2023-06-09T15:13:05.086Z,3.15
2023-06-09T15:15:33.902Z,2.58
2023-06-09T15:18:05.076Z,2.70
2023-06-09T15:20:35.301Z,2.53
2023-06-09T15:23:07.214Z,2.95
2023-06-09T15:25:38.463Z,2.88
2023-06-09T15:28:08.715Z,2.55
2023-06-09T15:30:38.928Z,2.88
2023-06-09T15:33:09.629Z,2.67
2023-06-09T15:35:39.902Z,2.55
2023-06-09T15:38:11.768Z,2.50
2023-06-09T15:40:42.831Z,2.95
2023-06-09T15:43:11.958Z,2.90
2023-06-09T15:45:41.638Z,2.22
2023-06-09T15:48:11.375Z,2.92
2023-06-09T15:50:41.919Z,2.78
2023-06-09T15:53:13.616Z,3.42
2023-06-09T15:55:42.388Z,2.55
2023-06-09T15:58:10.665Z,2.83
2023-06-09T16:00:39.157Z,2.45
2023-06-09T16:03:07.714Z,2.83
2023-06-09T16:05:37.951Z,3.03
2023-06-09T16:08:07.855Z,2.97
2023-06-09T16:10:39.580Z,2.38
2023-06-09T16:13:08.367Z,4.70
2023-06-09T16:15:38.755Z,2.95
2023-06-09T16:18:08.578Z,2.80
2023-06-09T16:20:42.759Z,2.63
2023-06-09T16:23:13.685Z,2.22
2023-06-09T16:25:44.688Z,3.03
2023-06-09T16:28:13.015Z,2.75
2023-06-09T16:30:41.878Z,3.65
2023-06-09T16:33:11.505Z,3.05
2023-06-09T16:35:41.301Z,2.72
2023-06-09T16:38:09.551Z,3.10
2023-06-09T16:40:38.673Z,2.50
2023-06-09T16:43:08.276Z,2.60
2023-06-09T16:45:37.179Z,3.00
2023-06-09T16:48:05.761Z,3.08
2023-06-09T16:50:34.576Z,3.22
2023-06-09T16:53:03.038Z,2.55
2023-06-09T16:55:32.012Z,2.90
2023-06-09T16:58:00.257Z,3.42
2023-06-09T17:00:30.823Z,2.92
2023-06-09T17:02:59.090Z,2.67
2023-06-09T17:05:28.169Z,3.15
2023-06-09T17:07:56.385Z,2.67
2023-06-09T17:10:25.311Z,4.00
2023-06-09T17:12:53.518Z,2.67
2023-06-09T17:15:25.663Z,3.55
2023-06-09T17:17:55.317Z,3.53
2023-06-09T17:20:24.061Z,2.83
2023-06-09T17:22:52.691Z,2.97
2023-06-09T17:25:21.627Z,2.90
2023-06-09T17:27:50.043Z,3.20
2023-06-09T17:30:18.494Z,3.15
2023-06-09T17:32:47.838Z,3.25
2023-06-09T17:35:17.443Z,3.40
2023-06-09T17:37:46.144Z,3.00
2023-06-09T17:40:15.401Z,2.60
2023-06-09T17:42:44.012Z,2.35
2023-06-09T17:45:13.385Z,3.13
2023-06-09T17:47:42.205Z,3.55
2023-06-09T17:50:11.286Z,2.75
2023-06-09T17:52:41.203Z,3.33
2023-06-09T17:55:10.421Z,3.10
2023-06-09T17:57:39.495Z,3.22
2023-06-09T18:00:10.185Z,3.90
2023-06-09T18:02:38.912Z,4.20
2023-06-09T18:05:07.701Z,3.85
2023-06-09T18:07:36.567Z,3.60
2023-06-09T18:10:06.931Z,3.33
2023-06-09T18:12:35.477Z,2.95
2023-06-09T18:15:03.753Z,3.50
2023-06-09T18:17:33.225Z,3.70
2023-06-09T18:20:01.535Z,3.10
2023-06-09T18:22:32.589Z,3.50
2023-06-09T18:25:00.821Z,3.35
2023-06-09T18:27:30.948Z,3.38
2023-06-09T18:29:59.219Z,3.78
2023-06-09T18:32:32.132Z,3.17
2023-06-09T18:35:00.528Z,3.25
2023-06-09T18:37:30.199Z,3.95
2023-06-09T18:39:58.408Z,3.78
2023-06-09T18:42:27.267Z,3.17
2023-06-09T18:44:56.814Z,3.47
2023-06-09T18:47:26.721Z,3.50
2023-06-09T18:49:55.039Z,3.75
2023-06-09T18:52:23.631Z,3.22
2023-06-09T18:54:52.234Z,3.75
2023-06-09T18:57:20.779Z,3.72
2023-06-09T18:59:49.305Z,3.00
2023-06-09T19:02:19.420Z,3.30
2023-06-09T19:04:51.479Z,3.63
2023-06-09T19:07:20.769Z,3.28
2023-06-09T19:09:49.253Z,3.00
2023-06-09T19:12:17.810Z,3.53
2023-06-09T19:14:46.513Z,3.28
2023-06-09T19:17:15.894Z,3.05
2023-06-09T19:19:45.953Z,2.88
2023-06-09T19:22:14.552Z,3.75
2023-06-09T19:24:44.547Z,2.88
2023-06-09T19:27:13.489Z,2.90
2023-06-09T19:29:42.207Z,3.17
2023-06-09T19:32:10.865Z,3.25
2023-06-09T19:34:39.945Z,2.70
2023-06-09T19:37:09.748Z,3.45
2023-06-09T19:39:38.349Z,2.65
2023-06-09T19:42:07.468Z,3.72
2023-06-09T19:44:36.000Z,3.15
2023-06-09T19:47:04.378Z,3.00
2023-06-09T19:49:32.883Z,2.85
2023-06-09T19:52:01.088Z,2.97
2023-06-09T19:54:31.044Z,3.30
2023-06-09T19:56:59.643Z,3.40
2023-06-09T19:59:28.246Z,3.15
2023-06-09T20:01:56.861Z,3.65
2023-06-09T20:04:25.516Z,2.78
2023-06-09T20:06:54.148Z,2.58
2023-06-09T20:09:25.152Z,2.88
2023-06-09T20:11:55.035Z,3.25
2023-06-09T20:14:23.554Z,2.78
2023-06-09T20:16:52.308Z,3.20
2023-06-09T20:19:21.035Z,3.22
2023-06-09T20:21:52.176Z,2.88
2023-06-09T20:24:21.780Z,3.17
2023-06-09T20:26:50.933Z,2.80
2023-06-09T20:29:21.214Z,3.17
2023-06-09T20:31:49.528Z,2.92
2023-06-09T20:34:18.059Z,3.08
2023-06-09T20:36:46.286Z,2.95
2023-06-09T20:39:15.141Z,2.97
2023-06-09T20:41:43.396Z,3.03
2023-06-09T20:44:13.482Z,3.10
2023-06-09T20:46:45.699Z,2.67
2023-06-09T20:49:15.025Z,3.17
2023-06-09T20:51:43.553Z,2.83
2023-06-09T20:54:17.694Z,2.70
2023-06-09T20:56:46.331Z,2.55
2023-06-09T20:59:14.906Z,2.90
2023-06-09T21:01:47.769Z,2.63
2023-06-09T21:04:17.288Z,2.47
2023-06-09T21:06:45.954Z,2.65
2023-06-09T21:09:15.719Z,2.97
2023-06-09T21:11:44.779Z,2.60
2023-06-09T21:14:13.492Z,2.40
2023-06-09T21:16:44.801Z,2.47
2023-06-09T21:19:13.580Z,2.90
2023-06-09T21:21:42.136Z,2.10
2023-06-09T21:24:10.964Z,2.50
2023-06-09T21:26:39.721Z,2.17
2023-06-09T21:29:08.266Z,2.20
2023-06-09T21:31:36.908Z,2.00
2023-06-09T21:34:07.053Z,2.45
2023-06-09T21:36:36.023Z,2.50
2023-06-09T21:39:04.640Z,2.50
2023-06-09T21:41:33.229Z,2.60
2023-06-09T21:44:01.854Z,2.67
2023-06-09T21:46:30.124Z,2.20
2023-06-09T21:48:58.697Z,2.17
2023-06-09T21:51:28.584Z,2.42
2023-06-09T21:53:57.076Z,2.22
2023-06-09T21:56:26.137Z,2.35
2023-06-09T21:58:54.676Z,2.20
2023-06-09T22:01:23.223Z,2.65
2023-06-09T22:03:51.843Z,2.47
2023-06-09T22:06:20.434Z,3.05
2023-06-09T22:08:50.388Z,2.97
2023-06-09T22:11:18.889Z,2.30
2023-06-09T22:13:48.021Z,2.42
2023-06-09T22:16:16.280Z,2.08
2023-06-09T22:18:45.202Z,2.30
2023-06-09T22:21:14.535Z,2.70
2023-06-09T22:23:42.811Z,2.33
2023-06-09T22:26:12.738Z,2.63
2023-06-09T22:28:40.951Z,2.22
2023-06-09T22:31:09.556Z,2.65
2023-06-09T22:33:38.109Z,2.38
2023-06-09T22:36:07.411Z,2.05
2023-06-09T22:38:36.234Z,2.30
2023-06-09T22:41:07.001Z,2.70
2023-06-09T22:43:36.760Z,3.00
2023-06-09T22:46:05.342Z,2.88
2023-06-09T22:48:36.481Z,1.92
2023-06-09T22:51:05.639Z,2.58
2023-06-09T22:53:35.179Z,2.17
2023-06-09T22:56:04.507Z,2.53
2023-06-09T22:58:32.773Z,2.08
2023-06-09T23:01:02.727Z,1.60
2023-06-09T23:03:31.258Z,1.98
2023-06-09T23:06:00.403Z,1.90
2023-06-09T23:08:29.115Z,1.83
2023-06-09T23:10:57.672Z,2.08
2023-06-09T23:13:26.468Z,2.38
2023-06-09T23:15:55.012Z,2.35
2023-06-09T23:18:29.717Z,2.42
2023-06-09T23:20:58.465Z,2.47
2023-06-09T23:23:27.862Z,2.50
2023-06-09T23:25:56.602Z,2.47
2023-06-09T23:28:25.098Z,2.10
2023-06-09T23:30:55.402Z,2.60
2023-06-09T23:33:26.486Z,1.92
2023-06-09T23:35:56.347Z,2.15
2023-06-09T23:38:24.769Z,2.30
2023-06-09T23:40:53.890Z,2.42
2023-06-09T23:43:23.503Z,2.33
2023-06-09T23:45:53.692Z,2.20
2023-06-09T23:48:22.952Z,1.88
2023-06-09T23:50:54.274Z,2.60
2023-06-09T23:53:25.996Z,2.63
2023-06-09T23:55:55.605Z,1.83
2023-06-09T23:58:24.105Z,2.17
